Flight Track Log - Related Links

Times and Time Zones

All times are in EDT time to prevent confusion due to time zone crossing. See the SLI2114 flight status page for this flight to view local times or setup timezone preferences in your user account.


Time Position Orientation Groundspeed Altitude Reporting Facility
EDT Latitude Longitude Course Direction KTS MPH feet Rate Location/Type
Sun 11:54:00 PM 29.7532 -111.7932 316° Northwest  Level Estimated
Sun 11:55:00 PM 29.8035 -111.8510 315° West  Level Estimated
Sun 11:56:00 PM 29.8539 -111.9088 315° West  Level Estimated
Sun 11:57:00 PM 29.9042 -111.9666 315° West  Level Estimated
Sun 11:58:00 PM 29.9545 -112.0246 315° West  Level Estimated
Sun 11:59:00 PM 30.0048 -112.0825 315° West  Level Estimated
Mon 12:00:00 AM 30.0551 -112.1405 315° West  Level Estimated
Mon 12:01:00 AM 30.1053 -112.1986 315° West  Level Estimated
Mon 12:02:00 AM 30.1556 -112.2568 315° West  Level Estimated
Mon 12:03:00 AM 30.2057 -112.3150 315° West  Level Estimated
Mon 12:04:00 AM 30.2559 -112.3733 315° West  Level Estimated
Mon 12:05:00 AM 30.3060 -112.4316 315° West  Level Estimated
Mon 12:06:00 AM 30.3561 -112.4900 315° West  Level Estimated
Mon 12:07:00 AM 30.4062 -112.5484 315° West  Level Estimated
Mon 12:08:00 AM 30.4563 -112.6069 315° West  Level Estimated
Mon 12:09:00 AM 30.5063 -112.6655 315° West  Level Estimated
Mon 12:10:00 AM 30.5563 -112.7242 315° West  Level Estimated
Mon 12:11:00 AM 30.6063 -112.7828 315° West  Level Estimated
Mon 12:12:00 AM 30.6562 -112.8416 315° West  Level Estimated
Mon 12:13:00 AM 30.7062 -112.9004 315° West  Level Estimated
Mon 12:14:00 AM 30.7561 -112.9593 315° West  Level Estimated
Mon 12:15:00 AM 30.8059 -113.0182 315° West  Level Estimated
Mon 12:16:00 AM 30.8558 -113.0772 315° West  Level Estimated
Mon 12:17:00 AM 30.9056 -113.1362 315° West  Level Estimated
Mon 12:18:00 AM 30.9554 -113.1954 314° West  Level Estimated
Mon 12:19:00 AM 31.0051 -113.2545 314° West  Level Estimated
Mon 12:20:00 AM 31.0549 -113.3138 314° West  Level Estimated
Mon 12:21:00 AM 31.1046 -113.3731 314° West  Level Estimated
Mon 12:22:00 AM 31.1543 -113.4324 314° West  Level Estimated
Mon 12:23:00 AM 31.2039 -113.4919 314° West  Level Estimated
Mon 12:24:00 AM 31.2535 -113.5514 314° West  Level Estimated
Mon 12:25:00 AM 31.3032 -113.6109 314° West  Level Estimated
Mon 12:26:00 AM 31.3527 -113.6705 314° West  Level Estimated
Mon 12:27:00 AM 31.4023 -113.7302 314° West  Level Estimated
Mon 12:28:00 AM 31.4518 -113.7899 314° West  Level Estimated
Mon 12:29:00 AM 31.5013 -113.8497 314° West  Level Estimated
Mon 12:30:00 AM 31.5507 -113.9096 314° West  Level Estimated
Mon 12:31:00 AM 31.6002 -113.9695 314° West  Level Estimated
Mon 12:32:00 AM 31.6496 -114.0295 314° West  Level Estimated
Mon 12:33:00 AM 31.6990 -114.0896 314° West  Level Estimated
Mon 12:34:00 AM 31.7483 -114.1497 314° West  Level Estimated
Mon 12:35:00 AM 31.7976 -114.2099 314° West  Level Estimated
Mon 12:36:00 AM 31.8469 -114.2701 314° West  Level Estimated
Mon 12:37:00 AM 31.8962 -114.3304 314° West  Level Estimated
Mon 12:38:00 AM 31.9454 -114.3908 314° West  Level Estimated
Mon 12:39:00 AM 31.9946 -114.4513 314° West  Level Estimated
Mon 12:40:00 AM 32.0438 -114.5118 314° West  Level Estimated
Mon 12:41:00 AM 32.0930 -114.5723 314° West  Level Estimated
Mon 12:42:00 AM 32.1421 -114.6330 314° West  Level Estimated
Mon 12:43:00 AM 32.1912 -114.6937 314° West  Level Estimated
Mon 12:44:00 AM 32.2402 -114.7544 314° West  Level Estimated
Mon 12:45:00 AM 32.2893 -114.8153 314° West  Level Estimated
Mon 12:46:00 AM 32.3383 -114.8762 314° West  Level Estimated
Mon 12:47:00 AM 32.3873 -114.9371 314° West  Level Estimated
Mon 12:48:00 AM 32.4362 -114.9982 314° West  Level Estimated
Mon 12:49:00 AM 32.4851 -115.0593 314° West  Level Estimated
Mon 12:50:00 AM 32.5340 -115.1205 313° West  Level Estimated
Mon 12:51:00 AM 32.5829 -115.1817 313° West  Level Estimated
Mon 12:52:00 AM 32.6306 -115.2416 313° West  Level Estimated
Mon 12:53:00 AM 32.6306 -115.2416 32° Northeast  Level Estimated
Mon 12:54:00 AM 32.6306 -115.2416 32° Northeast  Level Estimated
Mon 12:55:00 AM 32.6306 -115.2416 32° Northeast  Level Estimated
Mon 12:56:00 AM 32.6306 -115.2416 32° Northeast  Level Estimated
Mon 12:57:00 AM 32.6306 -115.2416 32° Northeast  Level Estimated
Mon 12:58:00 AM 32.6306 -115.2416 32° Northeast  Level Estimated
Mon 12:59:00 AM 32.6306 -115.2416 32° Northeast  Level Estimated
Mon 01:00:00 AM 32.6306 -115.2416 32° Northeast  Level Estimated
Mon 01:01:00 AM 32.6306 -115.2416 32° Northeast  Level Estimated
Mon 01:02:00 AM 32.6306 -115.2416 32° Northeast  Level Estimated
Mon 01:03:00 AM 32.6306 -115.2416 32° Northeast  Level Estimated

Login

Don't have an account? Register now (free) for customized features, flight alerts, and more!